Time;durP1;ratioP1;P1;durP2;ratioP2;P2;SDS_P1;SDS_P2;PMS_P1;PMS_P2;Temp;Humidity;BMP_temperature;BMP_pressure;BME280_temperature;BME280_humidity;BME280_pressure;Samples;Min_cycle;Max_cycle;Signal;HPM_P1;HPM_P2
2022/10/06 00:02:22;;;;;;;16.60;2.10;;;;;;;;;;5092738;28;20198;-74
2022/10/06 00:04:49;;;;;;;15.17;2.27;;;;;;;;;;5086588;28;20222;-74
2022/10/06 00:07:17;;;;;;;11.83;2.07;;;;;;;;;;5077415;28;20241;-76
2022/10/06 00:09:44;;;;;;;14.00;2.03;;;;;;;;;;5087184;28;20731;-76
2022/10/06 00:12:12;;;;;;;11.70;2.10;;;;;;;;;;5092066;28;20289;-76
2022/10/06 00:14:40;;;;;;;11.90;2.00;;;;;;;;;;5086681;28;20246;-76
2022/10/06 00:17:07;;;;;;;12.83;1.87;;;;;;;;;;5080941;28;20748;-76
2022/10/06 00:19:34;;;;;;;11.93;2.30;;;;;;;;;;5080891;28;20738;-76
2022/10/06 00:22:01;;;;;;;10.60;1.80;;;;;;;;;;5079356;28;20749;-76
2022/10/06 00:24:28;;;;;;;14.70;2.60;;;;;;;;;;5080223;28;20780;-75
2022/10/06 00:26:56;;;;;;;14.23;2.17;;;;;;;;;;5088309;28;20610;-75
2022/10/06 00:29:24;;;;;;;15.30;2.10;;;;;;;;;;5083457;28;20243;-76
2022/10/06 00:31:52;;;;;;;13.30;2.00;;;;;;;;;;5084146;28;20210;-76
2022/10/06 00:34:19;;;;;;;12.63;2.70;;;;;;;;;;5077540;28;20207;-76
2022/10/06 00:36:46;;;;;;;12.97;2.63;;;;;;;;;;5073253;28;20297;-75
2022/10/06 00:39:13;;;;;;;12.67;2.10;;;;;;;;;;5076556;28;20290;-75
2022/10/06 00:41:40;;;;;;;11.77;2.03;;;;;;;;;;5083550;28;20560;-76
2022/10/06 00:44:07;;;;;;;13.23;2.30;;;;;;;;;;5090164;28;20237;-76
2022/10/06 00:46:40;;;;;;;13.30;2.40;;;;;;;;;;5073620;28;20238;-75
2022/10/06 00:49:09;;;;;;;16.87;2.87;;;;;;;;;;5083913;28;20241;-76
2022/10/06 00:51:38;;;;;;;20.13;2.77;;;;;;;;;;5074176;28;20285;-75
2022/10/06 00:54:05;;;;;;;13.23;2.20;;;;;;;;;;5088805;28;20285;-76
2022/10/06 00:56:33;;;;;;;18.33;3.03;;;;;;;;;;5080956;28;20777;-75
2022/10/06 00:59:00;;;;;;;17.10;2.70;;;;;;;;;;5090150;28;20301;-76
2022/10/06 01:01:28;;;;;;;14.20;2.30;;;;;;;;;;5073473;28;20199;-76
2022/10/06 01:03:59;;;;;;;11.13;2.37;;;;;;;;;;5085903;28;20238;-76
2022/10/06 01:06:27;;;;;;;16.83;2.80;;;;;;;;;;5092442;28;20202;-76
2022/10/06 01:08:54;;;;;;;13.40;2.20;;;;;;;;;;5079331;28;20386;-76
2022/10/06 01:11:21;;;;;;;12.93;2.70;;;;;;;;;;5077219;28;20631;-76
2022/10/06 01:13:48;;;;;;;15.77;2.40;;;;;;;;;;5073543;28;20237;-76
2022/10/06 01:16:21;;;;;;;14.67;2.60;;;;;;;;;;5091262;28;20300;-76
2022/10/06 01:18:49;;;;;;;11.90;2.87;;;;;;;;;;5086673;28;20206;-75
2022/10/06 01:21:21;;;;;;;13.03;2.70;;;;;;;;;;5092503;28;20288;-76
2022/10/06 01:23:50;;;;;;;10.13;2.47;;;;;;;;;;5092049;28;20289;-76
2022/10/06 01:26:19;;;;;;;9.33;2.20;;;;;;;;;;5072203;28;20245;-75
2022/10/06 01:28:46;;;;;;;12.50;2.50;;;;;;;;;;5088203;28;20215;-76
2022/10/06 01:31:13;;;;;;;8.53;2.50;;;;;;;;;;5072599;28;20290;-76
2022/10/06 01:33:40;;;;;;;14.73;3.30;;;;;;;;;;5084638;28;20289;-76
2022/10/06 01:36:08;;;;;;;15.83;2.87;;;;;;;;;;5084727;28;20329;-76
2022/10/06 01:38:36;;;;;;;10.47;2.60;;;;;;;;;;5072528;28;20291;-75
2022/10/06 01:41:05;;;;;;;17.20;2.77;;;;;;;;;;5075945;28;20538;-74
2022/10/06 01:43:32;;;;;;;14.63;3.00;;;;;;;;;;5073048;28;20203;-76
2022/10/06 01:45:59;;;;;;;12.53;2.87;;;;;;;;;;5072639;28;20238;-76
2022/10/06 01:48:27;;;;;;;9.50;2.40;;;;;;;;;;5072050;28;20203;-76
2022/10/06 01:50:54;;;;;;;14.77;2.80;;;;;;;;;;5071754;28;20282;-76
2022/10/06 01:53:21;;;;;;;15.47;2.93;;;;;;;;;;5092608;28;20198;-76
2022/10/06 01:55:48;;;;;;;14.70;3.03;;;;;;;;;;5087068;28;20225;-76
2022/10/06 01:58:17;;;;;;;14.77;2.60;;;;;;;;;;5083384;28;20293;-75
2022/10/06 02:00:44;;;;;;;11.47;3.10;;;;;;;;;;5090426;28;20258;-75
2022/10/06 02:03:11;;;;;;;14.43;3.00;;;;;;;;;;5084057;28;20202;-76
2022/10/06 02:05:39;;;;;;;14.23;2.60;;;;;;;;;;5090757;28;20286;-76
2022/10/06 02:08:06;;;;;;;14.63;3.13;;;;;;;;;;5088667;28;20631;-76
2022/10/06 02:10:33;;;;;;;12.10;2.97;;;;;;;;;;5087751;28;20305;-76
2022/10/06 02:13:00;;;;;;;14.37;3.30;;;;;;;;;;5079378;28;20233;-76
2022/10/06 02:15:32;;;;;;;13.40;3.27;;;;;;;;;;5084142;28;20313;-76
2022/10/06 02:17:59;;;;;;;11.57;3.13;;;;;;;;;;5071923;28;20256;-76
2022/10/06 02:20:26;;;;;;;13.17;3.53;;;;;;;;;;5082155;28;20226;-76
2022/10/06 02:22:53;;;;;;;17.50;3.40;;;;;;;;;;5091636;28;20701;-76
2022/10/06 02:25:20;;;;;;;15.67;3.40;;;;;;;;;;5074392;28;20242;-75
2022/10/06 02:27:48;;;;;;;16.77;3.87;;;;;;;;;;5081711;28;20208;-75
2022/10/06 02:30:15;;;;;;;11.90;3.20;;;;;;;;;;5085681;28;20305;-76
2022/10/06 02:32:44;;;;;;;9.30;3.40;;;;;;;;;;5081269;28;20233;-75
2022/10/06 02:35:12;;;;;;;12.47;3.70;;;;;;;;;;5075081;28;20208;-75
2022/10/06 02:37:40;;;;;;;12.80;3.00;;;;;;;;;;5093686;28;20199;-76
2022/10/06 02:40:08;;;;;;;7.33;2.80;;;;;;;;;;5088831;28;20209;-75
2022/10/06 02:42:36;;;;;;;12.90;3.10;;;;;;;;;;5084430;28;20705;-75
2022/10/06 02:45:04;;;;;;;10.90;2.90;;;;;;;;;;5087710;28;20206;-76
2022/10/06 02:47:32;;;;;;;11.57;3.10;;;;;;;;;;5084758;28;20202;-76
2022/10/06 02:50:02;;;;;;;12.60;3.03;;;;;;;;;;5095101;28;20719;-75
2022/10/06 02:52:32;;;;;;;13.27;3.20;;;;;;;;;;5083217;28;20213;-76
2022/10/06 02:54:59;;;;;;;14.00;2.90;;;;;;;;;;5083814;28;20207;-75
2022/10/06 02:57:26;;;;;;;15.03;3.33;;;;;;;;;;5088780;28;20278;-76
2022/10/06 02:59:54;;;;;;;18.03;2.90;;;;;;;;;;5075951;28;20668;-76
2022/10/06 03:02:21;;;;;;;14.17;3.03;;;;;;;;;;5075171;28;20292;-76
2022/10/06 03:04:48;;;;;;;14.13;2.67;;;;;;;;;;5079774;28;20285;-76
2022/10/06 03:07:16;;;;;;;10.23;2.67;;;;;;;;;;5093497;28;20710;-76
2022/10/06 03:09:44;;;;;;;17.03;3.50;;;;;;;;;;5080337;28;20211;-76
2022/10/06 03:12:11;;;;;;;14.97;3.53;;;;;;;;;;5089649;28;20283;-76
2022/10/06 03:14:38;;;;;;;9.90;2.87;;;;;;;;;;5091800;28;20255;-76
2022/10/06 03:17:08;;;;;;;7.30;2.07;;;;;;;;;;5093012;28;20311;-76
2022/10/06 03:19:35;;;;;;;6.50;1.60;;;;;;;;;;5087937;28;20206;-76
2022/10/06 03:22:03;;;;;;;6.83;1.70;;;;;;;;;;5083561;28;20237;-76
2022/10/06 03:24:31;;;;;;;4.43;1.43;;;;;;;;;;5079275;28;20234;-75
2022/10/06 03:26:58;;;;;;;3.27;1.60;;;;;;;;;;5093071;28;21175;-76
2022/10/06 03:29:27;;;;;;;6.90;1.90;;;;;;;;;;5088074;28;20252;-75
2022/10/06 03:31:55;;;;;;;3.47;1.40;;;;;;;;;;5092297;28;20194;-76
2022/10/06 03:34:22;;;;;;;4.87;1.70;;;;;;;;;;5075387;28;20288;-75
2022/10/06 03:36:50;;;;;;;1.93;1.33;;;;;;;;;;5093232;28;20583;-76
2022/10/06 03:39:17;;;;;;;4.80;1.80;;;;;;;;;;5079047;28;20226;-76
2022/10/06 03:41:45;;;;;;;8.23;2.20;;;;;;;;;;5093978;28;20287;-76
2022/10/06 03:44:12;;;;;;;3.20;1.90;;;;;;;;;;5094983;28;20658;-76
2022/10/06 03:46:40;;;;;;;5.13;2.10;;;;;;;;;;5080602;28;20226;-76
2022/10/06 03:49:07;;;;;;;4.33;1.90;;;;;;;;;;5075925;28;20231;-75
2022/10/06 03:51:35;;;;;;;6.87;2.10;;;;;;;;;;5074872;28;20289;-76
2022/10/06 03:54:02;;;;;;;3.93;2.27;;;;;;;;;;5092794;28;20292;-76
2022/10/06 03:56:30;;;;;;;5.80;2.00;;;;;;;;;;5087699;28;20311;-76
2022/10/06 03:58:59;;;;;;;6.67;2.03;;;;;;;;;;5083474;28;20704;-76
2022/10/06 04:01:28;;;;;;;3.87;1.80;;;;;;;;;;5089014;28;20293;-76
2022/10/06 04:03:55;;;;;;;6.47;2.03;;;;;;;;;;5075595;28;20207;-75
2022/10/06 04:06:23;;;;;;;5.17;2.20;;;;;;;;;;5078804;28;20228;-76
2022/10/06 04:08:51;;;;;;;5.03;2.20;;;;;;;;;;5079642;28;20643;-76
2022/10/06 04:11:20;;;;;;;5.63;2.03;;;;;;;;;;5074434;28;20282;-75
2022/10/06 04:13:47;;;;;;;5.03;2.13;;;;;;;;;;5073846;28;20290;-76
2022/10/06 04:16:17;;;;;;;8.30;2.30;;;;;;;;;;5074786;28;20313;-76
2022/10/06 04:18:45;;;;;;;4.70;2.33;;;;;;;;;;5078219;28;20240;-76
2022/10/06 04:21:12;;;;;;;7.03;2.37;;;;;;;;;;5075906;28;20239;-76
2022/10/06 04:23:39;;;;;;;7.23;2.33;;;;;;;;;;5078915;28;20650;-75
2022/10/06 04:26:09;;;;;;;9.97;2.70;;;;;;;;;;5078798;28;20302;-75
2022/10/06 04:28:37;;;;;;;10.57;2.70;;;;;;;;;;5087595;28;20218;-75
2022/10/06 04:31:05;;;;;;;7.07;2.93;;;;;;;;;;5083963;28;20573;-76
2022/10/06 04:33:34;;;;;;;7.10;2.73;;;;;;;;;;5090639;28;20681;-76
2022/10/06 04:36:02;;;;;;;6.73;2.80;;;;;;;;;;5089423;28;20716;-75
2022/10/06 04:38:32;;;;;;;7.07;2.80;;;;;;;;;;5094096;28;20737;-76
2022/10/06 04:41:04;;;;;;;7.27;2.80;;;;;;;;;;5086951;28;20296;-75
2022/10/06 04:43:31;;;;;;;5.07;2.70;;;;;;;;;;5077870;28;20295;-76
2022/10/06 04:45:58;;;;;;;5.73;2.67;;;;;;;;;;5078421;28;20229;-76
2022/10/06 04:48:26;;;;;;;8.47;2.80;;;;;;;;;;5092660;28;20201;-76
2022/10/06 04:50:59;;;;;;;8.87;2.63;;;;;;;;;;5087383;28;20245;-76
2022/10/06 04:53:26;;;;;;;4.80;2.50;;;;;;;;;;5073119;28;20289;-75
2022/10/06 04:56:00;;;;;;;5.83;2.67;;;;;;;;;;5073396;28;20286;-76
2022/10/06 04:58:27;;;;;;;5.40;2.50;;;;;;;;;;5080322;28;20210;-75
2022/10/06 05:00:54;;;;;;;9.77;3.00;;;;;;;;;;5092471;28;20808;-76
2022/10/06 05:03:22;;;;;;;5.10;2.97;;;;;;;;;;5092420;28;20742;-74
2022/10/06 05:05:49;;;;;;;6.70;3.17;;;;;;;;;;5077495;28;20746;-75
2022/10/06 05:08:17;;;;;;;9.67;3.00;;;;;;;;;;5092270;28;20229;-76
2022/10/06 05:10:45;;;;;;;6.13;2.60;;;;;;;;;;5075694;28;20286;-75
2022/10/06 05:13:14;;;;;;;6.13;2.83;;;;;;;;;;5084923;28;20628;-75
2022/10/06 05:15:41;;;;;;;9.67;2.90;;;;;;;;;;5088847;28;20990;-77
2022/10/06 05:18:08;;;;;;;9.43;3.03;;;;;;;;;;5088771;28;20222;-77
2022/10/06 05:20:35;;;;;;;7.40;2.97;;;;;;;;;;5076822;28;20234;-77
2022/10/06 05:23:07;;;;;;;9.60;3.23;;;;;;;;;;5072802;28;20290;-78
2022/10/06 05:25:35;;;;;;;4.97;2.93;;;;;;;;;;5087632;28;20194;-77
2022/10/06 05:28:02;;;;;;;7.50;3.03;;;;;;;;;;5087475;28;20286;-76
2022/10/06 05:30:29;;;;;;;5.63;3.10;;;;;;;;;;5072358;28;20356;-76
2022/10/06 05:32:57;;;;;;;4.87;3.10;;;;;;;;;;5089242;28;20226;-77
2022/10/06 05:35:24;;;;;;;6.17;3.17;;;;;;;;;;5082315;28;20241;-78
2022/10/06 05:37:51;;;;;;;4.20;2.93;;;;;;;;;;5073855;28;20307;-77
2022/10/06 05:40:18;;;;;;;5.00;3.10;;;;;;;;;;5086627;28;20283;-79
2022/10/06 05:42:47;;;;;;;7.13;3.40;;;;;;;;;;5078535;28;20674;-78
2022/10/06 05:45:14;;;;;;;5.23;3.20;;;;;;;;;;5090645;28;20927;-77
2022/10/06 05:47:42;;;;;;;4.20;3.30;;;;;;;;;;5091145;28;20229;-78
2022/10/06 05:50:09;;;;;;;5.20;2.90;;;;;;;;;;5092669;28;20210;-77
2022/10/06 05:52:37;;;;;;;4.43;3.20;;;;;;;;;;5091873;28;20289;-77
2022/10/06 05:55:04;;;;;;;3.30;2.70;;;;;;;;;;5083281;28;20233;-77
2022/10/06 05:57:31;;;;;;;5.03;3.60;;;;;;;;;;5072083;28;20277;-77
2022/10/06 06:00:00;;;;;;;5.20;3.27;;;;;;;;;;5072333;28;20314;-77
2022/10/06 06:02:27;;;;;;;4.20;3.30;;;;;;;;;;5087309;28;20202;-76
2022/10/06 06:04:54;;;;;;;6.50;3.20;;;;;;;;;;5090179;28;20343;-77
2022/10/06 06:07:22;;;;;;;4.27;3.27;;;;;;;;;;5083431;28;20278;-77
2022/10/06 06:09:49;;;;;;;4.47;3.20;;;;;;;;;;5086975;28;20260;-77
2022/10/06 06:12:16;;;;;;;6.13;3.83;;;;;;;;;;5078742;28;20241;-77
2022/10/06 06:17:32;;;;;;;4.90;3.70;;;;;;;;;;5091780;28;20279;-77
2022/10/06 06:19:59;;;;;;;4.57;3.60;;;;;;;;;;5092284;28;20277;-75
2022/10/06 06:22:27;;;;;;;6.73;4.20;;;;;;;;;;5093241;28;20380;-75
2022/10/06 06:24:54;;;;;;;5.00;3.70;;;;;;;;;;5078190;28;20724;-76
2022/10/06 06:27:21;;;;;;;4.27;3.70;;;;;;;;;;5071533;28;20234;-77
2022/10/06 06:29:49;;;;;;;5.50;3.60;;;;;;;;;;5085238;28;20732;-77
2022/10/06 06:32:16;;;;;;;3.43;3.13;;;;;;;;;;5090911;28;20717;-77
2022/10/06 06:34:45;;;;;;;4.80;3.10;;;;;;;;;;5081841;28;20257;-77
2022/10/06 06:37:12;;;;;;;4.90;3.60;;;;;;;;;;5080348;28;20301;-77
2022/10/06 06:39:39;;;;;;;7.80;3.83;;;;;;;;;;5087712;28;20297;-77
2022/10/06 06:42:07;;;;;;;5.90;3.93;;;;;;;;;;5079140;28;20293;-76
2022/10/06 06:44:34;;;;;;;5.90;3.53;;;;;;;;;;5092119;28;20202;-77
2022/10/06 06:47:01;;;;;;;4.00;3.20;;;;;;;;;;5091619;28;20199;-76
2022/10/06 06:49:29;;;;;;;5.63;3.30;;;;;;;;;;5090714;28;20271;-78
2022/10/06 06:51:57;;;;;;;3.70;3.10;;;;;;;;;;5082547;28;20287;-77
2022/10/06 06:54:26;;;;;;;4.37;3.40;;;;;;;;;;5074632;28;20292;-77
2022/10/06 06:56:55;;;;;;;3.77;2.93;;;;;;;;;;5090484;28;20720;-77
2022/10/06 06:59:24;;;;;;;5.33;3.20;;;;;;;;;;5087549;28;20237;-76
2022/10/06 07:01:51;;;;;;;4.13;2.50;;;;;;;;;;5082131;28;20209;-78
2022/10/06 07:04:18;;;;;;;4.57;2.60;;;;;;;;;;5089972;28;20272;-76
2022/10/06 07:06:55;;;;;;;3.73;2.37;;;;;;;;;;5091135;28;20281;-77
2022/10/06 07:09:25;;;;;;;2.40;2.00;;;;;;;;;;5081186;28;20209;-77
2022/10/06 07:11:53;;;;;;;3.63;2.40;;;;;;;;;;5071655;28;20199;-77
2022/10/06 07:14:23;;;;;;;2.87;1.90;;;;;;;;;;5079081;28;20202;-76
2022/10/06 07:25:10;;;;;;;4.17;2.40;;;;;;;;;;5086762;28;20728;-77
2022/10/06 07:27:40;;;;;;;2.30;1.93;;;;;;;;;;5092765;28;20213;-77
2022/10/06 07:30:10;;;;;;;3.30;2.33;;;;;;;;;;5078748;28;20221;-77
2022/10/06 07:32:38;;;;;;;2.70;2.00;;;;;;;;;;5075207;28;20238;-74
2022/10/06 07:35:06;;;;;;;2.75;2.30;;;;;;;;;;5087329;28;20289;-77
2022/10/06 07:37:35;;;;;;;4.28;2.38;;;;;;;;;;5090216;28;20218;-76
2022/10/06 07:40:03;;;;;;;4.30;2.20;;;;;;;;;;5078643;28;20190;-77
2022/10/06 07:42:46;;;;;;;3.30;2.30;;;;;;;;;;5094836;28;20289;-76
2022/10/06 07:47:58;;;;;;;5.05;2.38;;;;;;;;;;5075012;28;20206;-76
2022/10/06 07:50:26;;;;;;;4.93;2.55;;;;;;;;;;5081391;28;20274;-76
2022/10/06 07:52:53;;;;;;;5.13;2.70;;;;;;;;;;5094971;28;20203;-76
2022/10/06 07:55:20;;;;;;;8.65;3.58;;;;;;;;;;5080213;28;20282;-76
2022/10/06 07:57:50;;;;;;;6.32;2.50;;;;;;;;;;5080261;28;20305;-76
2022/10/06 08:00:19;;;;;;;6.70;3.00;;;;;;;;;;5084774;28;20750;-76
2022/10/06 08:02:47;;;;;;;4.18;2.60;;;;;;;;;;5090590;28;20199;-77
2022/10/06 08:05:14;;;;;;;6.70;2.95;;;;;;;;;;5075010;28;20282;-77
2022/10/06 08:07:41;;;;;;;6.10;2.95;;;;;;;;;;5088862;28;20234;-77
2022/10/06 08:10:09;;;;;;;5.20;2.88;;;;;;;;;;5091173;28;20289;-76
2022/10/06 08:12:38;;;;;;;8.15;3.28;;;;;;;;;;5074151;28;20308;-77
2022/10/06 08:15:10;;;;;;;7.22;2.90;;;;;;;;;;5073718;28;20245;-77
2022/10/06 08:17:37;;;;;;;6.50;2.90;;;;;;;;;;5074857;28;20226;-77
2022/10/06 08:20:05;;;;;;;9.93;3.40;;;;;;;;;;5084588;28;20281;-77
2022/10/06 08:22:32;;;;;;;7.47;3.00;;;;;;;;;;5085350;28;20301;-78
2022/10/06 08:24:59;;;;;;;7.00;3.05;;;;;;;;;;5084459;28;20275;-79
2022/10/06 08:27:28;;;;;;;9.18;3.05;;;;;;;;;;5085456;28;20199;-77
2022/10/06 08:29:55;;;;;;;8.07;3.17;;;;;;;;;;5082686;28;20311;-77
2022/10/06 08:32:24;;;;;;;6.60;2.80;;;;;;;;;;5074863;28;20233;-77
2022/10/06 08:34:51;;;;;;;9.48;3.20;;;;;;;;;;5081902;28;20285;-77
2022/10/06 08:37:22;;;;;;;8.93;3.13;;;;;;;;;;5088542;28;20261;-77
2022/10/06 08:39:49;;;;;;;9.05;3.17;;;;;;;;;;5090763;28;20209;-77
2022/10/06 08:42:20;;;;;;;11.70;3.20;;;;;;;;;;5079460;28;20248;-77
2022/10/06 08:44:48;;;;;;;10.93;3.45;;;;;;;;;;5085767;28;20231;-77
2022/10/06 08:47:18;;;;;;;8.30;3.47;;;;;;;;;;5086130;28;20262;-78
2022/10/06 08:49:47;;;;;;;10.23;3.67;;;;;;;;;;5090881;28;20733;-77
2022/10/06 08:52:20;;;;;;;10.52;3.15;;;;;;;;;;5073113;28;20245;-77
2022/10/06 08:54:49;;;;;;;11.25;2.97;;;;;;;;;;5074171;28;20199;-77
2022/10/06 08:57:20;;;;;;;11.82;3.20;;;;;;;;;;5073809;28;20314;-77
2022/10/06 08:59:48;;;;;;;12.70;2.90;;;;;;;;;;5091680;28;20230;-77
2022/10/06 09:02:24;;;;;;;11.00;2.90;;;;;;;;;;5082613;28;20209;-77
2022/10/06 09:04:53;;;;;;;10.02;2.67;;;;;;;;;;5078824;28;20340;-77
2022/10/06 09:07:22;;;;;;;10.77;3.15;;;;;;;;;;5077582;28;20222;-77
2022/10/06 09:10:01;;;;;;;10.93;3.10;;;;;;;;;;5089320;28;20284;-78
2022/10/06 09:12:33;;;;;;;10.43;3.05;;;;;;;;;;5093120;28;20285;-77
2022/10/06 09:15:06;;;;;;;9.32;3.25;;;;;;;;;;5082682;28;20663;-78
2022/10/06 09:17:35;;;;;;;11.60;3.63;;;;;;;;;;5076727;28;20638;-78
2022/10/06 09:20:05;;;;;;;10.13;3.25;;;;;;;;;;5082439;28;20230;-78
2022/10/06 09:22:32;;;;;;;8.18;3.13;;;;;;;;;;5093085;28;20256;-78
2022/10/06 09:25:02;;;;;;;13.85;3.25;;;;;;;;;;5092812;28;20233;-78
2022/10/06 09:27:32;;;;;;;10.15;3.65;;;;;;;;;;5093826;28;20237;-77
2022/10/06 09:30:00;;;;;;;11.90;3.40;;;;;;;;;;5082225;28;20297;-78
2022/10/06 09:32:28;;;;;;;10.63;4.00;;;;;;;;;;5090667;28;20721;-78
2022/10/06 09:34:56;;;;;;;11.60;4.05;;;;;;;;;;5073747;28;20722;-78
2022/10/06 09:37:24;;;;;;;14.07;3.53;;;;;;;;;;5072701;28;20206;-78
2022/10/06 09:39:52;;;;;;;8.73;3.40;;;;;;;;;;5082215;28;20289;-78
2022/10/06 09:42:21;;;;;;;11.20;3.17;;;;;;;;;;5091487;28;20237;-79
2022/10/06 09:44:58;;;;;;;12.48;3.60;;;;;;;;;;5091876;28;20194;-78
2022/10/06 09:47:33;;;;;;;11.45;3.17;;;;;;;;;;5075396;28;20230;-78
2022/10/06 09:50:03;;;;;;;10.00;3.17;;;;;;;;;;5072369;28;20205;-78
2022/10/06 09:52:31;;;;;;;12.50;3.20;;;;;;;;;;5074419;28;20205;-78
2022/10/06 09:55:05;;;;;;;8.63;2.83;;;;;;;;;;5072831;28;20705;-78
2022/10/06 09:57:33;;;;;;;10.45;2.35;;;;;;;;;;5090165;28;20297;-78
2022/10/06 10:00:02;;;;;;;11.18;2.90;;;;;;;;;;5091695;28;20594;-78
2022/10/06 10:02:32;;;;;;;13.18;3.22;;;;;;;;;;5085160;28;20289;-78
2022/10/06 10:05:01;;;;;;;11.80;2.83;;;;;;;;;;5092070;28;20202;-78
2022/10/06 10:07:29;;;;;;;8.25;2.47;;;;;;;;;;5079398;28;20202;-78
2022/10/06 10:10:16;;;;;;;12.45;2.63;;;;;;;;;;5075512;28;20229;-78
2022/10/06 10:12:49;;;;;;;9.98;2.60;;;;;;;;;;5074951;28;20238;-78
2022/10/06 10:15:28;;;;;;;7.93;2.60;;;;;;;;;;5071803;28;20739;-79
2022/10/06 10:17:56;;;;;;;10.80;2.80;;;;;;;;;;5075979;28;20218;-78
2022/10/06 10:20:27;;;;;;;8.55;2.58;;;;;;;;;;5083803;28;20237;-78
2022/10/06 10:22:56;;;;;;;10.00;2.55;;;;;;;;;;5080166;28;20205;-79
2022/10/06 10:25:44;;;;;;;8.63;2.65;;;;;;;;;;5092425;28;20198;-79
2022/10/06 10:28:21;;;;;;;11.00;2.65;;;;;;;;;;5083882;28;20227;-79
2022/10/06 10:30:49;;;;;;;7.00;2.00;;;;;;;;;;5081512;28;20226;-79
2022/10/06 10:33:21;;;;;;;9.93;2.10;;;;;;;;;;5077520;28;20203;-79
2022/10/06 10:35:51;;;;;;;8.18;2.22;;;;;;;;;;5078332;28;20234;-79
2022/10/06 10:38:20;;;;;;;6.15;1.92;;;;;;;;;;5089126;28;20697;-78
2022/10/06 10:40:50;;;;;;;12.45;2.35;;;;;;;;;;5080987;28;20301;-79
2022/10/06 10:43:22;;;;;;;9.65;2.17;;;;;;;;;;5089873;28;20211;-78
2022/10/06 10:45:51;;;;;;;9.07;2.38;;;;;;;;;;5081609;28;20206;-78
2022/10/06 10:48:21;;;;;;;6.93;2.00;;;;;;;;;;5084773;28;20206;-78
2022/10/06 10:50:51;;;;;;;8.98;2.00;;;;;;;;;;5081169;28;20244;-79
2022/10/06 10:53:21;;;;;;;7.30;1.88;;;;;;;;;;5090660;28;20229;-79
2022/10/06 10:55:50;;;;;;;7.30;2.00;;;;;;;;;;5094746;28;20312;-78
2022/10/06 10:58:20;;;;;;;5.22;1.63;;;;;;;;;;5090684;28;20222;-79
2022/10/06 11:00:49;;;;;;;8.35;1.77;;;;;;;;;;5090411;28;20262;-79
2022/10/06 11:03:16;;;;;;;7.53;2.13;;;;;;;;;;5088924;28;20665;-79
2022/10/06 11:05:54;;;;;;;8.23;2.10;;;;;;;;;;5086155;28;20252;-79
2022/10/06 11:08:24;;;;;;;8.20;1.88;;;;;;;;;;5095243;28;20252;-79
2022/10/06 11:10:58;;;;;;;11.10;1.73;;;;;;;;;;5088649;28;20206;-78
2022/10/06 11:13:29;;;;;;;7.35;1.60;;;;;;;;;;5076156;28;20290;-79
2022/10/06 11:16:03;;;;;;;5.88;1.50;;;;;;;;;;5078908;28;20250;-79
2022/10/06 11:18:37;;;;;;;6.15;2.00;;;;;;;;;;5077852;28;20672;-79
2022/10/06 11:21:06;;;;;;;8.88;1.98;;;;;;;;;;5080234;28;20245;-79
2022/10/06 11:23:52;;;;;;;6.35;1.73;;;;;;;;;;5083226;28;20213;-79
2022/10/06 11:26:31;;;;;;;6.47;1.77;;;;;;;;;;5075801;28;20202;-79
2022/10/06 11:29:01;;;;;;;6.85;1.58;;;;;;;;;;5082096;28;20271;-79
2022/10/06 11:31:31;;;;;;;7.13;1.70;;;;;;;;;;5094366;28;20285;-79
2022/10/06 11:34:00;;;;;;;7.32;1.80;;;;;;;;;;5094913;28;20290;-79
2022/10/06 11:36:34;;;;;;;8.27;1.65;;;;;;;;;;5088446;28;20627;-79
2022/10/06 11:39:03;;;;;;;7.47;2.13;;;;;;;;;;5092790;28;20222;-78
2022/10/06 11:41:35;;;;;;;7.95;1.52;;;;;;;;;;5080713;28;20289;-79
2022/10/06 11:44:04;;;;;;;9.65;2.22;;;;;;;;;;5074781;28;20199;-79
2022/10/06 11:46:34;;;;;;;8.30;2.00;;;;;;;;;;5074574;28;20239;-79
2022/10/06 11:49:20;;;;;;;7.18;1.70;;;;;;;;;;5074659;28;20222;-79
2022/10/06 11:51:47;;;;;;;7.90;2.05;;;;;;;;;;5075257;28;20286;-79
2022/10/06 11:54:29;;;;;;;7.85;1.75;;;;;;;;;;5083193;28;20194;-79
2022/10/06 11:56:57;;;;;;;8.35;1.75;;;;;;;;;;5079282;28;20290;-79
2022/10/06 11:59:26;;;;;;;6.22;1.65;;;;;;;;;;5084141;28;20788;-79
2022/10/06 12:01:54;;;;;;;8.00;2.17;;;;;;;;;;5093742;28;20206;-79
2022/10/06 12:04:24;;;;;;;6.72;2.00;;;;;;;;;;5094750;28;20298;-79
2022/10/06 12:07:01;;;;;;;6.28;1.33;;;;;;;;;;5091467;28;20281;-79
2022/10/06 12:09:30;;;;;;;7.70;1.90;;;;;;;;;;5084441;28;20238;-79
2022/10/06 12:11:59;;;;;;;7.00;1.80;;;;;;;;;;5095248;28;20202;-79
2022/10/06 12:14:31;;;;;;;7.55;1.85;;;;;;;;;;5094597;28;20626;-79
2022/10/06 12:17:00;;;;;;;6.05;1.60;;;;;;;;;;5094860;28;20240;-80
2022/10/06 12:19:30;;;;;;;8.07;2.15;;;;;;;;;;5093688;28;20318;-78
2022/10/06 12:22:00;;;;;;;5.32;1.60;;;;;;;;;;5081173;28;20282;-78
2022/10/06 12:24:33;;;;;;;8.95;2.10;;;;;;;;;;5074106;28;20203;-79
2022/10/06 12:27:25;;;;;;;9.18;2.42;;;;;;;;;;5074212;28;20627;-78
2022/10/06 12:29:58;;;;;;;7.63;2.22;;;;;;;;;;5067978;28;20218;-78
2022/10/06 12:32:33;;;;;;;7.65;1.83;;;;;;;;;;5074313;28;20289;-78
2022/10/06 12:35:10;;;;;;;4.50;1.67;;;;;;;;;;5074146;28;20320;-78
2022/10/06 12:37:40;;;;;;;5.53;1.58;;;;;;;;;;5077904;28;20600;-78
2022/10/06 12:40:26;;;;;;;6.32;1.48;;;;;;;;;;5084078;28;20309;-79
2022/10/06 12:43:10;;;;;;;5.10;1.73;;;;;;;;;;5093019;28;20641;-78
2022/10/06 12:45:40;;;;;;;6.88;1.85;;;;;;;;;;5094667;28;20194;-79
2022/10/06 12:48:08;;;;;;;5.47;1.65;;;;;;;;;;5094522;28;20289;-78
2022/10/06 12:50:35;;;;;;;6.85;1.80;;;;;;;;;;5094061;28;20238;-78
2022/10/06 12:53:04;;;;;;;8.02;1.73;;;;;;;;;;5090742;28;20237;-78
2022/10/06 12:55:39;;;;;;;6.97;1.88;;;;;;;;;;5080100;28;20249;-78
2022/10/06 12:58:07;;;;;;;8.85;1.65;;;;;;;;;;5078248;28;20232;-78
2022/10/06 13:00:36;;;;;;;6.88;1.73;;;;;;;;;;5092921;28;20705;-78
2022/10/06 13:03:07;;;;;;;5.18;1.80;;;;;;;;;;5091023;28;20229;-78
2022/10/06 13:05:35;;;;;;;9.63;2.05;;;;;;;;;;5094090;28;20194;-78
2022/10/06 13:08:04;;;;;;;7.55;1.90;;;;;;;;;;5089143;28;20205;-78
2022/10/06 13:10:32;;;;;;;7.38;1.80;;;;;;;;;;5092510;28;20380;-79
2022/10/06 13:12:59;;;;;;;7.53;1.80;;;;;;;;;;5087334;28;20203;-78
2022/10/06 13:15:32;;;;;;;6.15;1.67;;;;;;;;;;5094407;28;20605;-78
2022/10/06 13:18:04;;;;;;;6.07;1.63;;;;;;;;;;5094181;28;20195;-78
2022/10/06 13:20:43;;;;;;;5.05;1.55;;;;;;;;;;5093493;28;20318;-78
2022/10/06 13:23:22;;;;;;;6.82;1.90;;;;;;;;;;5092617;28;20281;-78
2022/10/06 13:25:51;;;;;;;6.72;1.85;;;;;;;;;;5091386;28;20241;-78
2022/10/06 13:28:22;;;;;;;6.78;1.77;;;;;;;;;;5078390;28;20634;-78
2022/10/06 13:30:52;;;;;;;7.57;1.70;;;;;;;;;;5081716;28;20382;-78
2022/10/06 13:33:20;;;;;;;6.43;1.73;;;;;;;;;;5076174;28;20677;-78
2022/10/06 13:35:49;;;;;;;6.38;1.70;;;;;;;;;;5093336;28;20285;-78
2022/10/06 13:38:18;;;;;;;6.97;2.03;;;;;;;;;;5083362;28;20282;-78
2022/10/06 13:40:45;;;;;;;6.63;2.00;;;;;;;;;;5092883;28;20253;-78
2022/10/06 13:43:16;;;;;;;8.23;1.92;;;;;;;;;;5087645;28;20285;-78
2022/10/06 13:45:44;;;;;;;8.45;1.90;;;;;;;;;;5073018;28;20291;-79
2022/10/06 13:48:14;;;;;;;7.45;1.65;;;;;;;;;;5072825;28;20705;-78
2022/10/06 13:50:46;;;;;;;8.85;2.15;;;;;;;;;;5091954;28;20198;-78
2022/10/06 13:53:25;;;;;;;9.85;1.90;;;;;;;;;;5083980;28;20290;-79
2022/10/06 13:55:52;;;;;;;8.60;2.38;;;;;;;;;;5092574;28;20651;-78
2022/10/06 13:58:21;;;;;;;10.48;2.28;;;;;;;;;;5091797;28;20305;-78
2022/10/06 14:00:54;;;;;;;7.20;1.95;;;;;;;;;;5091551;28;20629;-78
2022/10/06 14:03:23;;;;;;;7.75;1.70;;;;;;;;;;5091320;28;21234;-78
2022/10/06 14:05:51;;;;;;;7.93;2.28;;;;;;;;;;5093164;28;20233;-78
2022/10/06 14:08:23;;;;;;;7.22;1.90;;;;;;;;;;5087091;28;20246;-78
2022/10/06 14:10:53;;;;;;;6.13;1.67;;;;;;;;;;5082045;28;20194;-78
2022/10/06 14:13:21;;;;;;;7.25;1.75;;;;;;;;;;5089615;28;20237;-78
2022/10/06 14:15:49;;;;;;;8.32;1.83;;;;;;;;;;5085629;28;20297;-78
2022/10/06 14:18:19;;;;;;;9.57;2.50;;;;;;;;;;5091846;28;20241;-78
2022/10/06 14:20:46;;;;;;;9.25;2.00;;;;;;;;;;5093045;28;20647;-78
2022/10/06 14:23:33;;;;;;;6.60;1.90;;;;;;;;;;5091484;28;20290;-78
2022/10/06 14:26:02;;;;;;;7.35;1.60;;;;;;;;;;5081714;28;20948;-78
2022/10/06 14:28:29;;;;;;;9.20;1.63;;;;;;;;;;5072690;28;20661;-78
2022/10/06 14:30:56;;;;;;;7.90;1.83;;;;;;;;;;5089757;28;20248;-78
2022/10/06 14:33:24;;;;;;;10.68;2.22;;;;;;;;;;5087559;28;20230;-77
2022/10/06 14:35:51;;;;;;;5.22;1.63;;;;;;;;;;5077947;28;20206;-78
2022/10/06 14:38:19;;;;;;;6.68;1.88;;;;;;;;;;5079237;28;20293;-78
2022/10/06 14:40:46;;;;;;;7.05;1.98;;;;;;;;;;5071771;28;20937;-78
2022/10/06 14:43:14;;;;;;;8.88;2.10;;;;;;;;;;5076392;28;20199;-78
2022/10/06 14:45:42;;;;;;;10.13;2.05;;;;;;;;;;5074251;28;20253;-78
2022/10/06 14:48:09;;;;;;;7.05;2.17;;;;;;;;;;5090676;28;20281;-78
2022/10/06 14:50:36;;;;;;;8.45;2.13;;;;;;;;;;5092695;28;20259;-78
2022/10/06 14:53:04;;;;;;;9.70;2.88;;;;;;;;;;5092064;28;20209;-78
2022/10/06 14:55:31;;;;;;;10.88;2.25;;;;;;;;;;5091845;28;20297;-79
2022/10/06 14:57:59;;;;;;;7.45;2.05;;;;;;;;;;5091615;28;20289;-78
2022/10/06 15:00:27;;;;;;;7.68;2.67;;;;;;;;;;5092497;28;20679;-78
2022/10/06 15:02:55;;;;;;;10.48;2.42;;;;;;;;;;5088916;28;20202;-77
2022/10/06 15:05:22;;;;;;;11.75;2.47;;;;;;;;;;5072249;28;20638;-78